Whiting Field Naval Air Station north Airport Milton US
ICAO: KNSE
IATA: NSE
Category: Medium
Scheduled Services: No

Elevation: 199 ft
TransAlt. 18000 ft.

Airport Communications:
PENSACOLA APP/DEP:127.35
ATIS:29.032
CLNC DEL:25.777
GND:25.115
BASE OPS:23.37
PMSV METRO:31.695
TWR:121.4

KNSE Zoom In..

Runways:

(A) RW 05 length 6002 ft width 200 ft
---- / hdg 49

(B) RW 14 length 6002 ft width 200 ft
ILS 111.75 / hdg 139

(C) RW 23 length 6002 ft width 200 ft
---- / hdg 229

(D) RW 32 length 6002 ft width 200 ft
---- / hdg 319

Location; KNSE
Day. 06 / Time. 05.56 Zulu
* Altimeter: 29.97
* Temperature: 6/° c. 42.8°f.
* Wind from: 140° Speed 05 kn.
Dewpoint: //° c.
Visibility: 10 Statute Miles.
Clouds: Clear (automated report).

KNSE 060556Z AUTO 14005KT 10SM CLR 23/22 A2997 RMK AO2 SLP134 6//// T02280222 10267 20228 403170194 58007 PNO $


Wind From 140°
Speed 05 kn.

 
 
jpsmedia worldairports.se 2020   terms of use